Time;durP1;ratioP1;P1;durP2;ratioP2;P2;SDS_P1;SDS_P2;PMS_P1;PMS_P2;Temp;Humidity;BMP_temperature;BMP_pressure;BME280_temperature;BME280_humidity;BME280_pressure;Samples;Min_cycle;Max_cycle;Signal;HPM_P1;HPM_P2
2021/06/30 00:00:16;;;;;;;0.70;0.20;;;12.10;99.90;;;;;;2064365;28;20182;-69
2021/06/30 00:01:18;;;;;;;0.20;0.20;;;12.10;99.90;;;;;;2064746;28;20186;-68
2021/06/30 00:02:18;;;;;;;0.20;0.20;;;12.00;99.90;;;;;;2064969;28;20186;-68
2021/06/30 00:03:19;;;;;;;0.23;0.23;;;12.00;99.90;;;;;;2072380;28;20255;-68
2021/06/30 00:04:20;;;;;;;0.20;0.20;;;12.00;99.90;;;;;;2072420;28;20272;-68
2021/06/30 00:05:21;;;;;;;0.30;0.30;;;12.00;99.90;;;;;;2065116;28;20202;-68
2021/06/30 00:06:22;;;;;;;0.20;0.20;;;11.90;99.90;;;;;;2065162;28;20185;-68
2021/06/30 00:07:22;;;;;;;0.20;0.20;;;11.90;99.90;;;;;;2065285;28;20182;-67
2021/06/30 00:08:23;;;;;;;0.30;0.30;;;11.80;99.90;;;;;;2065209;28;20194;-67
2021/06/30 00:09:25;;;;;;;0.30;0.30;;;11.80;99.90;;;;;;2064452;28;20182;-68
2021/06/30 00:10:26;;;;;;;0.20;0.20;;;11.90;99.90;;;;;;2056500;28;20222;-68
2021/06/30 00:11:26;;;;;;;0.30;0.30;;;11.90;99.90;;;;;;2064584;28;20618;-69
2021/06/30 00:12:27;;;;;;;0.10;0.10;;;11.90;99.90;;;;;;2065100;28;20178;-70
2021/06/30 00:13:28;;;;;;;0.20;0.20;;;11.90;99.90;;;;;;2064827;28;20205;-69
2021/06/30 00:14:29;;;;;;;0.20;0.20;;;11.90;99.90;;;;;;2064897;28;20182;-69
2021/06/30 00:15:32;;;;;;;0.30;0.30;;;12.00;99.90;;;;;;2072471;28;20201;-69
2021/06/30 00:16:33;;;;;;;0.35;0.35;;;12.10;99.90;;;;;;2072143;28;20194;-68
2021/06/30 00:17:34;;;;;;;0.40;0.40;;;12.10;99.90;;;;;;2064598;28;20182;-69
2021/06/30 00:18:34;;;;;;;0.30;0.30;;;12.10;99.90;;;;;;2064255;28;20185;-69
2021/06/30 00:19:36;;;;;;;0.20;0.20;;;12.20;99.90;;;;;;2064345;28;20541;-69
2021/06/30 00:20:37;;;;;;;0.43;0.43;;;12.20;99.90;;;;;;2072263;28;20201;-68
2021/06/30 00:21:39;;;;;;;0.20;0.20;;;12.20;99.90;;;;;;2064473;28;20526;-69
2021/06/30 00:22:40;;;;;;;0.30;0.30;;;12.20;99.90;;;;;;2064338;28;20178;-68
2021/06/30 00:23:42;;;;;;;0.25;0.25;;;12.10;99.90;;;;;;2055990;28;20641;-68
2021/06/30 00:24:43;;;;;;;0.20;0.20;;;12.10;99.90;;;;;;2064385;28;20197;-69
2021/06/30 00:25:44;;;;;;;0.20;0.20;;;12.10;99.90;;;;;;2064888;28;20677;-69
2021/06/30 00:26:45;;;;;;;0.10;0.10;;;12.10;99.90;;;;;;2065001;28;20777;-69
2021/06/30 00:27:48;;;;;;;0.20;0.20;;;12.10;99.90;;;;;;2064306;28;20321;-68
2021/06/30 00:28:48;;;;;;;0.15;0.15;;;12.10;99.90;;;;;;2064273;28;20174;-69
2021/06/30 00:29:49;;;;;;;0.20;0.20;;;12.10;99.90;;;;;;2064458;28;20178;-68
2021/06/30 00:30:50;;;;;;;0.60;0.60;;;12.00;99.90;;;;;;2064764;28;20582;-69
2021/06/30 00:31:50;;;;;;;0.30;0.30;;;12.00;99.90;;;;;;2064260;28;20269;-69
2021/06/30 00:32:51;;;;;;;0.50;0.50;;;12.00;99.90;;;;;;2064292;28;20205;-68
2021/06/30 00:33:52;;;;;;;0.27;0.27;;;11.90;99.90;;;;;;2064727;28;20194;-68
2021/06/30 00:34:52;;;;;;;0.20;0.20;;;11.90;99.90;;;;;;2072172;28;20181;-69
2021/06/30 00:35:53;;;;;;;0.20;0.20;;;11.90;99.90;;;;;;2064176;28;20182;-69
2021/06/30 00:36:54;;;;;;;0.20;0.20;;;11.90;99.90;;;;;;2064279;28;20212;-69
2021/06/30 00:37:54;;;;;;;0.20;0.20;;;11.90;99.90;;;;;;2072307;28;20170;-69
2021/06/30 00:38:55;;;;;;;0.30;0.30;;;11.90;99.90;;;;;;2065020;28;20712;-68
2021/06/30 00:39:56;;;;;;;0.27;0.27;;;11.90;99.90;;;;;;2064871;28;20179;-69
2021/06/30 00:40:57;;;;;;;0.20;0.20;;;11.90;99.90;;;;;;2064857;28;20175;-68
2021/06/30 00:41:57;;;;;;;0.20;0.20;;;11.90;99.90;;;;;;2064568;28;20277;-68
2021/06/30 00:42:58;;;;;;;0.40;0.37;;;12.00;99.90;;;;;;2072631;28;20189;-69
2021/06/30 00:43:59;;;;;;;0.27;0.27;;;12.00;99.90;;;;;;2072158;28;20198;-69
2021/06/30 00:45:00;;;;;;;0.10;0.10;;;11.90;99.90;;;;;;2072389;28;20232;-69
2021/06/30 00:46:00;;;;;;;0.20;0.20;;;12.00;99.90;;;;;;2072463;28;20178;-69
2021/06/30 00:47:03;;;;;;;0.30;0.30;;;11.90;99.90;;;;;;2064926;28;20202;-69
2021/06/30 00:48:04;;;;;;;0.20;0.20;;;12.00;99.90;;;;;;2064076;28;20233;-68
2021/06/30 00:49:09;;;;;;;0.30;0.30;;;11.90;99.90;;;;;;2064487;28;20547;-69
2021/06/30 00:50:13;;;;;;;0.20;0.20;;;12.00;99.90;;;;;;2072230;28;20268;-69
2021/06/30 00:51:14;;;;;;;0.30;0.30;;;11.90;99.90;;;;;;2071849;28;20654;-69
2021/06/30 00:52:15;;;;;;;0.10;0.10;;;11.90;99.90;;;;;;2064095;28;20187;-68
2021/06/30 00:53:15;;;;;;;0.27;0.27;;;11.90;99.90;;;;;;2064671;28;20555;-69
2021/06/30 00:54:16;;;;;;;0.20;0.20;;;11.90;99.90;;;;;;2064623;28;20627;-68
2021/06/30 00:55:17;;;;;;;0.30;0.30;;;11.80;99.90;;;;;;2064612;28;20210;-69
2021/06/30 00:56:23;;;;;;;0.22;0.22;;;11.80;99.90;;;;;;2064602;28;20668;-68
2021/06/30 00:57:23;;;;;;;0.40;0.40;;;11.70;99.90;;;;;;2072164;28;20161;-69
2021/06/30 00:58:24;;;;;;;0.10;0.10;;;11.60;99.90;;;;;;2071778;28;20759;-68
2021/06/30 00:59:25;;;;;;;0.33;0.33;;;11.70;99.90;;;;;;2064691;28;20174;-69
2021/06/30 01:00:26;;;;;;;0.20;0.20;;;11.70;99.90;;;;;;2064729;28;20325;-69
2021/06/30 01:01:27;;;;;;;0.20;0.20;;;11.60;99.90;;;;;;2064680;28;20182;-69
2021/06/30 01:02:28;;;;;;;0.30;0.30;;;11.60;99.90;;;;;;2064846;28;20539;-69
2021/06/30 01:03:29;;;;;;;0.20;0.20;;;11.50;99.90;;;;;;2064499;28;20274;-68
2021/06/30 01:04:30;;;;;;;0.10;0.10;;;11.40;99.90;;;;;;2064590;28;20185;-68
2021/06/30 01:05:31;;;;;;;0.20;0.20;;;11.40;99.90;;;;;;2072339;28;20272;-68
2021/06/30 01:06:32;;;;;;;0.23;0.23;;;11.40;99.90;;;;;;2072235;28;20181;-69
2021/06/30 01:07:32;;;;;;;0.13;0.13;;;11.40;99.90;;;;;;2064277;28;20193;-69
2021/06/30 01:08:33;;;;;;;0.10;0.10;;;11.50;99.90;;;;;;2064630;28;20179;-68
2021/06/30 01:09:34;;;;;;;0.10;0.10;;;11.50;99.90;;;;;;2064726;28;20222;-69
2021/06/30 01:10:35;;;;;;;0.10;0.10;;;11.50;99.90;;;;;;2064762;28;20190;-69
2021/06/30 01:11:36;;;;;;;0.20;0.20;;;11.50;99.90;;;;;;2072093;28;20186;-69
2021/06/30 01:12:37;;;;;;;0.20;0.20;;;11.50;99.90;;;;;;2073609;28;20185;-69
2021/06/30 01:13:40;;;;;;;0.20;0.20;;;11.50;99.90;;;;;;2073551;28;20182;-69
2021/06/30 01:14:41;;;;;;;0.20;0.20;;;11.40;99.90;;;;;;2065528;28;20178;-69
2021/06/30 01:15:55;;;;;;;0.10;0.10;;;11.40;99.90;;;;;;2065588;28;20254;-69
2021/06/30 01:17:00;;;;;;;0.20;0.20;;;11.40;99.90;;;;;;2065633;28;20163;-69
2021/06/30 01:18:00;;;;;;;0.20;0.20;;;11.40;99.90;;;;;;2065719;28;20173;-68
2021/06/30 01:19:01;;;;;;;0.20;0.20;;;11.30;99.90;;;;;;2066058;28;20557;-69
2021/06/30 01:20:05;;;;;;;0.20;0.20;;;11.30;99.90;;;;;;2065416;28;20221;-68
2021/06/30 01:21:09;;;;;;;0.30;0.30;;;11.30;99.90;;;;;;2065583;28;20178;-69
2021/06/30 01:22:10;;;;;;;0.30;0.30;;;11.30;99.90;;;;;;2068095;28;20688;-68
2021/06/30 01:23:11;;;;;;;0.20;0.20;;;11.30;99.90;;;;;;2066011;28;20178;-68
2021/06/30 01:24:12;;;;;;;0.22;0.22;;;11.30;99.90;;;;;;2066118;28;20445;-69
2021/06/30 01:25:13;;;;;;;0.20;0.20;;;11.30;99.90;;;;;;2065366;28;20653;-69
2021/06/30 01:26:14;;;;;;;0.20;0.20;;;11.30;99.90;;;;;;2057650;28;20190;-69
2021/06/30 01:27:17;;;;;;;0.20;0.20;;;11.30;99.90;;;;;;2065411;28;20204;-69
2021/06/30 01:28:19;;;;;;;0.20;0.20;;;11.30;99.90;;;;;;2065973;28;20231;-68
2021/06/30 01:29:21;;;;;;;0.30;0.30;;;11.20;99.90;;;;;;2065437;28;20743;-69
2021/06/30 01:30:22;;;;;;;0.10;0.10;;;11.20;99.90;;;;;;2065464;28;20189;-69
2021/06/30 01:31:23;;;;;;;0.13;0.13;;;11.20;99.90;;;;;;2066027;28;20182;-69
2021/06/30 01:32:25;;;;;;;0.20;0.20;;;11.20;99.90;;;;;;2066028;28;20217;-69
2021/06/30 01:33:25;;;;;;;0.20;0.20;;;11.20;99.90;;;;;;2065789;28;20221;-69
2021/06/30 01:34:26;;;;;;;0.10;0.10;;;11.30;99.90;;;;;;2073713;28;20220;-68
2021/06/30 01:35:28;;;;;;;0.57;0.57;;;11.30;99.90;;;;;;2073378;28;20209;-68
2021/06/30 01:36:29;;;;;;;0.17;0.17;;;11.30;99.90;;;;;;2066085;28;20223;-69
2021/06/30 01:37:30;;;;;;;0.10;0.10;;;11.30;99.90;;;;;;2066084;28;20719;-69
2021/06/30 01:38:31;;;;;;;0.20;0.20;;;11.30;99.90;;;;;;2066003;28;20186;-69
2021/06/30 01:39:32;;;;;;;0.20;0.20;;;11.30;99.90;;;;;;2065348;28;20237;-68
2021/06/30 01:40:34;;;;;;;0.20;0.20;;;11.30;99.90;;;;;;2065351;28;20234;-68
2021/06/30 01:41:35;;;;;;;0.20;0.20;;;11.30;99.90;;;;;;2066061;28;20175;-69
2021/06/30 01:42:35;;;;;;;0.10;0.10;;;11.20;99.90;;;;;;2065387;28;20186;-68
2021/06/30 01:43:36;;;;;;;0.20;0.20;;;11.20;99.90;;;;;;2065215;28;20186;-69
2021/06/30 01:44:37;;;;;;;0.17;0.17;;;11.30;99.90;;;;;;2066033;28;20194;-69
2021/06/30 01:45:37;;;;;;;0.30;0.30;;;11.20;99.90;;;;;;2066038;28;20190;-68
2021/06/30 01:46:39;;;;;;;0.10;0.10;;;11.30;99.90;;;;;;2065853;28;20185;-69
2021/06/30 01:47:41;;;;;;;0.22;0.22;;;11.30;99.90;;;;;;2073483;28;20181;-69
2021/06/30 01:48:47;;;;;;;0.20;0.20;;;11.40;99.90;;;;;;2073292;28;20234;-68
2021/06/30 01:49:47;;;;;;;0.32;0.32;;;11.40;99.90;;;;;;2065446;28;20178;-69
2021/06/30 01:50:50;;;;;;;0.20;0.20;;;11.40;99.90;;;;;;2065294;28;20178;-69
2021/06/30 01:51:51;;;;;;;0.20;0.20;;;11.40;99.90;;;;;;2065371;28;20230;-69
2021/06/30 01:52:51;;;;;;;0.20;0.20;;;11.40;99.90;;;;;;2065335;28;20618;-69
2021/06/30 01:53:57;;;;;;;0.30;0.30;;;11.30;99.90;;;;;;2065719;28;20687;-69
2021/06/30 01:54:58;;;;;;;0.10;0.10;;;11.30;99.90;;;;;;2065191;28;20679;-68
2021/06/30 01:55:59;;;;;;;0.20;0.20;;;11.30;99.90;;;;;;2065148;28;20233;-68
2021/06/30 01:57:00;;;;;;;0.30;0.30;;;11.30;99.90;;;;;;2065420;28;20649;-69
2021/06/30 01:58:00;;;;;;;0.17;0.17;;;11.40;99.90;;;;;;2065284;28;20229;-69
2021/06/30 01:59:07;;;;;;;0.20;0.20;;;11.40;99.90;;;;;;2065408;28;20202;-69
2021/06/30 02:00:11;;;;;;;0.20;0.20;;;11.40;99.90;;;;;;2065448;28;20159;-70
2021/06/30 02:01:13;;;;;;;0.25;0.25;;;11.40;99.90;;;;;;2065746;28;20185;-68
2021/06/30 02:02:13;;;;;;;0.30;0.30;;;11.40;99.90;;;;;;2065818;28;20940;-69
2021/06/30 02:03:14;;;;;;;0.10;0.10;;;11.40;99.90;;;;;;2065500;28;20233;-68
2021/06/30 02:04:15;;;;;;;0.30;0.30;;;11.40;99.90;;;;;;2065796;28;20236;-69
2021/06/30 02:05:21;;;;;;;0.20;0.20;;;11.40;99.90;;;;;;2065858;28;20193;-69
2021/06/30 02:06:24;;;;;;;0.40;0.38;;;11.30;99.90;;;;;;2066022;28;20217;-68
2021/06/30 02:07:25;;;;;;;0.10;0.10;;;11.30;99.90;;;;;;2073632;28;20185;-68
2021/06/30 02:08:26;;;;;;;0.20;0.20;;;11.20;99.90;;;;;;2065410;28;20684;-68
2021/06/30 02:09:27;;;;;;;0.40;0.40;;;11.20;99.90;;;;;;2057341;28;20190;-69
2021/06/30 02:10:29;;;;;;;0.20;0.20;;;11.10;99.90;;;;;;2065285;28;20186;-68
2021/06/30 02:11:30;;;;;;;0.22;0.22;;;11.10;99.90;;;;;;2065441;28;20182;-69
2021/06/30 02:12:30;;;;;;;0.27;0.27;;;11.20;99.90;;;;;;2065252;28;20213;-69
2021/06/30 02:13:31;;;;;;;0.20;0.20;;;11.20;99.90;;;;;;2064871;28;20192;-69
2021/06/30 02:14:32;;;;;;;0.27;0.27;;;11.20;99.90;;;;;;2065307;28;20212;-68
2021/06/30 02:15:35;;;;;;;0.30;0.30;;;11.20;99.90;;;;;;2065616;28;20264;-68
2021/06/30 02:16:36;;;;;;;0.20;0.20;;;11.10;99.90;;;;;;2065695;28;20177;-69
2021/06/30 02:17:37;;;;;;;0.43;0.43;;;11.20;99.90;;;;;;2065656;28;20189;-68
2021/06/30 02:18:38;;;;;;;0.10;0.10;;;11.20;99.90;;;;;;2065743;28;20193;-69
2021/06/30 02:19:38;;;;;;;0.20;0.20;;;11.20;99.90;;;;;;2073221;28;20188;-68
2021/06/30 02:20:39;;;;;;;0.20;0.20;;;11.20;99.90;;;;;;2073284;28;20174;-69
2021/06/30 02:21:40;;;;;;;0.17;0.17;;;11.20;99.90;;;;;;2065692;28;20193;-69
2021/06/30 02:22:42;;;;;;;0.17;0.17;;;11.10;99.90;;;;;;2065633;28;20229;-68
2021/06/30 02:23:42;;;;;;;0.17;0.17;;;11.10;99.90;;;;;;2064791;28;20480;-68
2021/06/30 02:24:43;;;;;;;0.20;0.20;;;11.10;99.90;;;;;;2065619;28;20228;-69
2021/06/30 02:25:44;;;;;;;0.30;0.30;;;11.10;99.90;;;;;;2065595;28;20182;-69
2021/06/30 02:26:45;;;;;;;0.77;0.43;;;11.00;99.90;;;;;;2065652;28;20201;-69
2021/06/30 02:27:46;;;;;;;0.20;0.20;;;11.10;99.90;;;;;;2073116;28;20672;-69
2021/06/30 02:28:47;;;;;;;0.25;0.25;;;11.10;99.90;;;;;;2072913;28;20181;-69
2021/06/30 02:29:48;;;;;;;0.20;0.20;;;11.10;99.90;;;;;;2073184;28;20248;-69
2021/06/30 02:30:49;;;;;;;0.30;0.30;;;11.10;99.90;;;;;;2073154;28;20663;-68
2021/06/30 02:31:50;;;;;;;0.28;0.28;;;11.00;99.90;;;;;;2073247;28;20188;-69
2021/06/30 02:32:50;;;;;;;0.20;0.20;;;11.00;99.90;;;;;;2073262;28;20204;-69
2021/06/30 02:33:52;;;;;;;1.23;0.70;;;11.00;99.90;;;;;;2072709;28;20696;-69
2021/06/30 02:34:52;;;;;;;0.28;0.28;;;11.00;99.90;;;;;;2073131;28;20185;-69
2021/06/30 02:35:54;;;;;;;0.20;0.20;;;10.90;99.90;;;;;;2065510;28;20278;-68
2021/06/30 02:36:54;;;;;;;0.25;0.25;;;10.90;99.90;;;;;;2064932;28;20233;-69
2021/06/30 02:37:57;;;;;;;0.20;0.20;;;10.90;99.90;;;;;;2064901;28;20179;-69
2021/06/30 02:38:58;;;;;;;0.28;0.28;;;10.90;99.90;;;;;;2073012;28;20177;-69
2021/06/30 02:39:59;;;;;;;0.20;0.20;;;10.90;99.90;;;;;;2072929;28;20546;-69
2021/06/30 02:41:00;;;;;;;0.10;0.10;;;10.90;99.90;;;;;;2073168;28;20201;-69
2021/06/30 02:42:00;;;;;;;0.20;0.20;;;10.80;99.90;;;;;;2073041;28;20174;-68
2021/06/30 02:43:02;;;;;;;0.20;0.20;;;10.80;99.90;;;;;;2065801;28;20170;-69
2021/06/30 02:44:03;;;;;;;0.15;0.15;;;10.90;99.90;;;;;;2064559;28;20198;-69
2021/06/30 02:45:08;;;;;;;0.30;0.30;;;10.80;99.90;;;;;;2064947;28;20188;-68
2021/06/30 02:46:09;;;;;;;0.28;0.28;;;10.90;99.90;;;;;;2064890;28;20439;-68
2021/06/30 02:47:10;;;;;;;0.10;0.10;;;10.90;99.90;;;;;;2056869;28;20767;-69
2021/06/30 02:48:11;;;;;;;0.30;0.30;;;10.90;99.90;;;;;;2064915;28;20174;-69
2021/06/30 02:49:11;;;;;;;0.20;0.20;;;11.00;99.90;;;;;;2065510;28;20177;-69
2021/06/30 02:50:16;;;;;;;0.40;0.20;;;11.00;99.90;;;;;;2073062;28;20228;-69
2021/06/30 02:51:16;;;;;;;0.10;0.10;;;11.00;99.90;;;;;;2072552;28;20189;-69
2021/06/30 02:52:17;;;;;;;0.20;0.20;;;11.00;99.90;;;;;;2065381;28;20209;-68
2021/06/30 02:53:18;;;;;;;1.03;0.67;;;11.00;99.90;;;;;;2065241;28;20181;-69
2021/06/30 02:54:19;;;;;;;0.27;0.27;;;11.00;99.90;;;;;;2063148;28;20210;-69
2021/06/30 02:55:20;;;;;;;0.20;0.20;;;11.00;99.90;;;;;;2072517;28;20244;-68
2021/06/30 02:56:21;;;;;;;0.30;0.30;;;10.90;99.90;;;;;;2056471;28;20202;-69
2021/06/30 02:57:22;;;;;;;0.30;0.30;;;10.90;99.90;;;;;;2056783;28;20187;-68
2021/06/30 02:58:23;;;;;;;0.20;0.20;;;10.80;99.90;;;;;;2064729;28;20173;-68
2021/06/30 02:59:24;;;;;;;0.20;0.20;;;10.90;99.90;;;;;;2064718;28;20778;-68
2021/06/30 03:00:26;;;;;;;0.20;0.20;;;10.90;99.90;;;;;;2056715;28;20186;-69
2021/06/30 03:01:26;;;;;;;0.10;0.10;;;10.90;99.90;;;;;;2057369;28;20566;-69
2021/06/30 03:02:27;;;;;;;0.20;0.20;;;10.90;99.90;;;;;;2057347;28;20241;-69
2021/06/30 03:03:28;;;;;;;0.20;0.20;;;11.00;99.90;;;;;;2057193;28;20183;-69
2021/06/30 03:04:29;;;;;;;0.30;0.30;;;11.00;99.90;;;;;;2057282;28;20187;-68
2021/06/30 03:05:29;;;;;;;0.20;0.20;;;11.00;99.90;;;;;;2057296;28;20198;-68
2021/06/30 03:06:30;;;;;;;0.30;0.30;;;11.00;99.90;;;;;;2057194;28;20187;-69
2021/06/30 03:07:31;;;;;;;0.20;0.20;;;11.00;99.90;;;;;;2057306;28;20191;-69
2021/06/30 03:08:31;;;;;;;0.20;0.20;;;11.00;99.90;;;;;;2064681;28;20189;-69
2021/06/30 03:09:32;;;;;;;0.20;0.20;;;10.90;99.90;;;;;;2064827;28;20273;-69
2021/06/30 03:10:33;;;;;;;0.20;0.20;;;10.90;99.90;;;;;;2056605;28;20724;-68
2021/06/30 03:11:35;;;;;;;0.43;0.40;;;10.90;99.90;;;;;;2056599;28;20191;-69
2021/06/30 03:12:36;;;;;;;0.20;0.20;;;10.90;99.90;;;;;;2064626;28;20260;-69
2021/06/30 03:13:37;;;;;;;0.20;0.20;;;10.90;99.90;;;;;;2056230;28;20198;-69
2021/06/30 03:14:38;;;;;;;0.20;0.20;;;10.90;99.90;;;;;;2056600;28;20186;-68
2021/06/30 03:15:39;;;;;;;0.22;0.22;;;10.90;99.90;;;;;;2064523;28;20222;-69
2021/06/30 03:16:40;;;;;;;0.20;0.20;;;10.90;99.90;;;;;;2064462;28;20640;-68
2021/06/30 03:17:41;;;;;;;0.63;0.57;;;10.90;99.90;;;;;;2069594;28;20198;-69
2021/06/30 03:18:42;;;;;;;0.25;0.25;;;10.90;99.90;;;;;;2065312;28;20254;-69
2021/06/30 03:19:43;;;;;;;0.20;0.20;;;10.80;99.90;;;;;;2064633;28;20178;-68
2021/06/30 03:20:44;;;;;;;0.20;0.20;;;10.80;99.90;;;;;;2072716;28;20268;-69
2021/06/30 03:21:44;;;;;;;0.20;0.20;;;10.70;99.90;;;;;;2065139;28;20272;-69
2021/06/30 03:22:45;;;;;;;0.30;0.30;;;10.70;99.90;;;;;;2072711;28;20244;-69
2021/06/30 03:23:46;;;;;;;0.63;0.37;;;10.70;99.90;;;;;;2072392;28;20348;-69
2021/06/30 03:24:47;;;;;;;0.30;0.30;;;10.70;99.90;;;;;;2064647;28;20214;-69
2021/06/30 03:25:47;;;;;;;0.20;0.20;;;10.70;99.90;;;;;;2065177;28;20178;-69
2021/06/30 03:26:48;;;;;;;0.43;0.43;;;10.70;99.90;;;;;;2065238;28;20201;-69
2021/06/30 03:27:49;;;;;;;0.20;0.20;;;10.70;99.90;;;;;;2064336;28;20268;-69
2021/06/30 03:28:50;;;;;;;0.40;0.40;;;10.70;99.90;;;;;;2064825;28;20181;-69
2021/06/30 03:29:51;;;;;;;0.30;0.30;;;10.70;99.90;;;;;;2064656;28;20832;-69
2021/06/30 03:30:52;;;;;;;0.30;0.30;;;10.70;99.90;;;;;;2064744;28;20277;-69
2021/06/30 03:31:54;;;;;;;0.40;0.40;;;10.70;99.90;;;;;;2065094;28;20301;-69
2021/06/30 03:32:54;;;;;;;0.30;0.30;;;10.80;99.90;;;;;;2065184;28;20261;-69
2021/06/30 03:33:55;;;;;;;0.30;0.30;;;10.80;99.90;;;;;;2064798;28;20205;-69
2021/06/30 03:34:56;;;;;;;0.30;0.30;;;10.80;99.90;;;;;;2065138;28;20544;-68
2021/06/30 03:35:56;;;;;;;0.20;0.20;;;10.90;99.90;;;;;;2064264;28;20271;-68
2021/06/30 03:36:57;;;;;;;0.30;0.30;;;10.90;99.90;;;;;;2072512;28;20260;-68
2021/06/30 03:37:58;;;;;;;0.20;0.20;;;10.90;99.90;;;;;;2072565;28;20177;-69
2021/06/30 03:38:59;;;;;;;0.43;0.43;;;11.00;99.90;;;;;;2065082;28;20256;-68
2021/06/30 03:39:59;;;;;;;0.30;0.30;;;11.00;99.90;;;;;;2065083;28;20233;-69
2021/06/30 03:41:01;;;;;;;0.30;0.30;;;11.10;99.90;;;;;;2065133;28;20175;-69
2021/06/30 03:42:01;;;;;;;0.20;0.20;;;11.10;99.90;;;;;;2064538;28;20181;-68
2021/06/30 03:43:02;;;;;;;0.30;0.30;;;11.10;99.90;;;;;;2064527;28;20210;-68
2021/06/30 03:44:03;;;;;;;0.30;0.30;;;11.10;99.90;;;;;;2064698;28;20237;-68
2021/06/30 03:45:06;;;;;;;0.22;0.22;;;11.10;99.90;;;;;;2072613;28;20216;-68
2021/06/30 03:46:09;;;;;;;0.28;0.28;;;11.10;99.90;;;;;;2072295;28;20267;-69
2021/06/30 03:47:10;;;;;;;0.40;0.40;;;11.20;99.90;;;;;;2064479;28;20204;-68
2021/06/30 03:48:10;;;;;;;0.33;0.33;;;11.20;99.90;;;;;;2072459;28;20771;-69
2021/06/30 03:49:11;;;;;;;0.30;0.30;;;11.20;99.90;;;;;;2064468;28;20177;-68
2021/06/30 03:50:12;;;;;;;0.20;0.20;;;11.30;99.90;;;;;;2064328;28;20265;-68
2021/06/30 03:51:13;;;;;;;0.30;0.30;;;11.40;99.90;;;;;;2064540;28;20182;-68
2021/06/30 03:52:13;;;;;;;0.20;0.20;;;11.40;99.90;;;;;;2064429;28;20244;-69
2021/06/30 03:53:14;;;;;;;0.20;0.20;;;11.30;99.90;;;;;;2064335;28;20197;-69
2021/06/30 03:54:15;;;;;;;0.20;0.20;;;11.30;99.90;;;;;;2064444;28;20201;-68
2021/06/30 03:55:16;;;;;;;0.30;0.30;;;11.30;99.90;;;;;;2065106;28;20265;-68
2021/06/30 03:56:16;;;;;;;0.50;0.50;;;11.40;99.90;;;;;;2064920;28;20193;-69
2021/06/30 03:57:17;;;;;;;1.57;0.30;;;11.40;99.90;;;;;;2072554;28;20207;-69
2021/06/30 03:58:18;;;;;;;0.30;0.30;;;11.30;99.90;;;;;;2072463;28;20189;-69
2021/06/30 03:59:20;;;;;;;0.20;0.20;;;11.30;99.90;;;;;;2064265;28;20182;-69
2021/06/30 04:00:25;;;;;;;0.30;0.30;;;11.30;99.90;;;;;;2064419;28;20433;-69
2021/06/30 04:01:26;;;;;;;0.30;0.30;;;11.30;99.90;;;;;;2056820;28;20712;-69
2021/06/30 04:02:27;;;;;;;0.20;0.20;;;11.30;99.90;;;;;;2064429;28;20182;-69
2021/06/30 04:03:28;;;;;;;0.30;0.30;;;11.30;99.90;;;;;;2064589;28;20257;-69
2021/06/30 04:04:29;;;;;;;0.30;0.30;;;11.40;99.90;;;;;;2064992;28;20217;-69
2021/06/30 04:05:29;;;;;;;0.30;0.30;;;11.40;99.90;;;;;;2064380;28;20182;-69
2021/06/30 04:06:30;;;;;;;0.30;0.30;;;11.40;99.90;;;;;;2064527;28;20934;-69
2021/06/30 04:07:31;;;;;;;0.43;0.43;;;11.50;99.90;;;;;;2065034;28;20191;-69
2021/06/30 04:08:31;;;;;;;0.30;0.30;;;11.50;99.90;;;;;;2065134;28;20650;-69
2021/06/30 04:09:32;;;;;;;0.30;0.30;;;11.60;99.90;;;;;;2072434;28;20218;-69
2021/06/30 04:10:33;;;;;;;0.73;0.43;;;11.60;99.90;;;;;;2072396;28;20209;-69
2021/06/30 04:11:34;;;;;;;0.20;0.20;;;11.60;99.90;;;;;;2064903;28;20190;-68
2021/06/30 04:12:34;;;;;;;0.20;0.20;;;11.60;99.90;;;;;;2072461;28;20181;-69
2021/06/30 04:13:35;;;;;;;0.20;0.20;;;11.60;99.90;;;;;;2063994;28;20182;-69
2021/06/30 04:14:36;;;;;;;0.20;0.20;;;11.50;99.90;;;;;;2064297;28;20205;-68
2021/06/30 04:15:37;;;;;;;0.30;0.30;;;11.50;99.90;;;;;;2064039;28;20210;-69
2021/06/30 04:16:38;;;;;;;0.20;0.20;;;11.40;99.90;;;;;;2056475;28;20700;-69
2021/06/30 04:17:38;;;;;;;0.30;0.30;;;11.30;99.90;;;;;;2056280;28;20179;-68
2021/06/30 04:18:39;;;;;;;0.30;0.30;;;11.30;99.90;;;;;;2064395;28;20524;-69
2021/06/30 04:19:40;;;;;;;0.30;0.30;;;11.30;99.90;;;;;;2064346;28;20277;-68
2021/06/30 04:20:42;;;;;;;0.30;0.30;;;11.30;99.90;;;;;;2064322;28;20182;-69
2021/06/30 04:21:43;;;;;;;0.20;0.20;;;11.20;99.90;;;;;;2065046;28;20653;-69
2021/06/30 04:22:44;;;;;;;0.30;0.30;;;11.10;99.90;;;;;;2065083;28;20182;-68
2021/06/30 04:23:44;;;;;;;0.30;0.30;;;11.00;99.90;;;;;;2072003;28;20667;-68
2021/06/30 04:24:45;;;;;;;0.30;0.30;;;11.00;99.90;;;;;;2072445;28;20184;-69
2021/06/30 04:25:47;;;;;;;0.43;0.43;;;11.00;99.90;;;;;;2056128;28;20237;-68
2021/06/30 04:26:48;;;;;;;0.20;0.20;;;11.00;99.90;;;;;;2064377;28;20638;-69
2021/06/30 04:27:49;;;;;;;0.20;0.20;;;11.10;99.90;;;;;;2064882;28;20268;-69
2021/06/30 04:28:50;;;;;;;0.10;0.10;;;11.10;99.90;;;;;;2072568;28;20189;-69
2021/06/30 04:29:50;;;;;;;0.20;0.20;;;11.10;99.90;;;;;;2072445;28;20178;-68
2021/06/30 04:30:51;;;;;;;0.10;0.10;;;11.10;99.90;;;;;;2064269;28;20182;-69
2021/06/30 04:31:52;;;;;;;0.20;0.20;;;11.10;99.90;;;;;;2072235;28;20733;-68
2021/06/30 04:32:52;;;;;;;0.20;0.20;;;11.10;99.90;;;;;;2072152;28;20236;-68
2021/06/30 04:33:53;;;;;;;0.30;0.30;;;11.10;99.90;;;;;;2064286;28;20209;-69
2021/06/30 04:34:54;;;;;;;0.10;0.10;;;11.10;99.90;;;;;;2064654;28;20664;-69
2021/06/30 04:35:54;;;;;;;0.20;0.20;;;11.10;99.90;;;;;;2063813;28;20582;-68
2021/06/30 04:36:55;;;;;;;0.27;0.27;;;11.10;99.90;;;;;;2055978;28;20182;-69
2021/06/30 04:37:56;;;;;;;0.20;0.20;;;11.10;99.90;;;;;;2063972;28;20174;-68
2021/06/30 04:38:56;;;;;;;0.30;0.30;;;11.10;99.90;;;;;;2072055;28;20182;-68
2021/06/30 04:39:57;;;;;;;0.13;0.13;;;11.10;99.90;;;;;;2072067;28;20184;-69
2021/06/30 04:40:58;;;;;;;0.30;0.30;;;11.10;99.90;;;;;;2072040;28;20268;-69
2021/06/30 04:41:59;;;;;;;0.17;0.17;;;11.10;99.90;;;;;;2072010;28;20178;-68
2021/06/30 04:42:59;;;;;;;0.20;0.20;;;11.10;99.90;;;;;;2064530;28;20256;-69
2021/06/30 04:44:00;;;;;;;0.20;0.20;;;11.20;99.90;;;;;;2064283;28;20204;-69
2021/06/30 04:45:01;;;;;;;0.30;0.30;;;11.20;99.90;;;;;;2064505;28;20178;-69
2021/06/30 04:46:01;;;;;;;0.20;0.20;;;11.20;99.90;;;;;;2064595;28;20682;-68
2021/06/30 04:47:03;;;;;;;0.20;0.20;;;11.30;99.90;;;;;;2064945;28;20180;-69
2021/06/30 04:48:04;;;;;;;0.30;0.30;;;11.20;99.90;;;;;;2065485;28;20237;-68
2021/06/30 04:49:05;;;;;;;0.20;0.20;;;11.20;99.90;;;;;;2057526;28;20240;-68
2021/06/30 04:50:06;;;;;;;0.30;0.30;;;11.20;99.90;;;;;;2065607;28;20694;-68
2021/06/30 04:51:07;;;;;;;0.32;0.32;;;11.30;99.90;;;;;;2066109;28;20182;-68
2021/06/30 04:52:07;;;;;;;0.30;0.30;;;11.30;99.90;;;;;;2073750;28;20186;-68
2021/06/30 04:53:08;;;;;;;0.27;0.27;;;11.30;99.90;;;;;;2073393;28;20177;-68
2021/06/30 04:54:09;;;;;;;0.57;0.57;;;11.30;99.90;;;;;;2065964;28;20226;-69
2021/06/30 04:55:10;;;;;;;0.40;0.40;;;11.40;99.90;;;;;;2065952;28;20179;-69
2021/06/30 04:56:11;;;;;;;0.38;0.38;;;11.40;99.90;;;;;;2065313;28;20193;-68
2021/06/30 04:57:11;;;;;;;0.27;0.27;;;11.40;99.90;;;;;;2065465;28;20189;-68
2021/06/30 04:58:12;;;;;;;0.20;0.20;;;11.50;99.90;;;;;;2066161;28;20174;-68
2021/06/30 04:59:13;;;;;;;0.30;0.30;;;11.50;99.90;;;;;;2066064;28;20265;-69
2021/06/30 05:00:14;;;;;;;0.20;0.20;;;11.50;99.90;;;;;;2073590;28;20269;-69
2021/06/30 05:01:15;;;;;;;0.30;0.30;;;11.50;99.90;;;;;;2073475;28;20815;-69
2021/06/30 05:02:15;;;;;;;0.67;0.67;;;11.60;99.90;;;;;;2066048;28;20178;-69
2021/06/30 05:03:16;;;;;;;0.40;0.40;;;11.60;99.90;;;;;;2065741;28;20696;-68
2021/06/30 05:04:18;;;;;;;0.43;0.43;;;11.60;99.90;;;;;;2065986;28;20299;-68
2021/06/30 05:05:19;;;;;;;0.30;0.30;;;11.70;99.90;;;;;;2073497;28;20216;-68
2021/06/30 05:06:20;;;;;;;0.37;0.37;;;11.70;99.90;;;;;;2073473;28;20316;-69
2021/06/30 05:07:21;;;;;;;0.50;0.50;;;11.70;99.90;;;;;;2065956;28;20552;-68
2021/06/30 05:08:23;;;;;;;0.20;0.20;;;11.70;99.90;;;;;;2066067;28;20183;-68
2021/06/30 05:09:24;;;;;;;0.22;0.22;;;11.70;99.90;;;;;;2065389;28;20213;-69
2021/06/30 05:10:26;;;;;;;0.20;0.20;;;11.80;99.90;;;;;;2065375;28;20205;-68
2021/06/30 05:11:26;;;;;;;0.30;0.30;;;11.70;99.90;;;;;;2065767;28;20175;-68
2021/06/30 05:12:27;;;;;;;0.30;0.30;;;11.80;99.90;;;;;;2073528;28;20736;-69
2021/06/30 05:13:28;;;;;;;0.20;0.20;;;11.80;99.90;;;;;;2073108;28;20614;-69
2021/06/30 05:14:28;;;;;;;0.20;0.20;;;11.80;99.90;;;;;;2065968;28;20201;-69
2021/06/30 05:15:29;;;;;;;0.20;0.20;;;11.80;99.90;;;;;;2068092;28;20569;-68
2021/06/30 05:16:30;;;;;;;0.20;0.20;;;11.90;99.90;;;;;;2065988;28;20206;-68
2021/06/30 05:17:31;;;;;;;0.20;0.20;;;11.80;99.90;;;;;;2066006;28;20425;-68
2021/06/30 05:18:32;;;;;;;0.30;0.30;;;11.90;99.90;;;;;;2065906;28;20613;-68